KSCF

South Marsh 268

South Marsh 268, Louisiana, USA
METAR KSCF 220215Z AUTO 16008KT 10SM FEW028 28/22 A3000 RMK A01
Observed Flight Rules
May-22 @ 02:15 UTC (24 minutes ago) Visual Flight Rules
Wind Visibility Clouds
160° at 8 knots 10 miles
  • Few at 2,800' AGL
Temperatures Readings
Current 28°C / 82°F
Dewpoint 22°C / 72°F
Humidity 70%
Altimeter 30" Hg
Pressure 1016 hPa
Elevation 8
METAR KSCF 220215Z AUTO 16008KT 10SM FEW028 28/22 A3000 RMK A01
Observed Flight Rules
May-22 @ 02:15 UTC
(24 minutes ago)
VFR
Wind Visibility
160° at 8 knots 10 miles
Clouds
  • Few at 2,800' AGL
Temperature Dewpoint
28°C / 82°F 22°C / 72°F
Humidity Altimeter Pressure
70% 30" Hg 1016 hPa